Time,TemperatureF,DewpointF,PressureIn,WindDirection,WindDirectionDegrees,WindSpeedMPH,WindSpeedGustMPH,Humidity,HourlyPrecipIn,Conditions,Clouds,dailyrainin,SoftwareType,DateUTC
2013-03-15 00:00:00,36.7,11.0,30.18,WNW,292,2.7,3.1,34,0.00,,CLR,0.00,VWS V14.01,2013-03-15 04:00:00,
2013-03-15 00:01:00,36.3,11.3,30.18,WNW,292,0.0,2.2,35,0.00,,CLR,0.00,VWS V14.01,2013-03-15 04:01:00,
2013-03-15 00:06:00,37.0,11.3,30.18,WNW,292,2.7,2.7,34,0.00,,CLR,0.00,VWS V14.01,2013-03-15 04:06:00,
2013-03-15 00:11:00,38.5,10.5,30.18,West,270,3.6,3.6,31,0.00,,CLR,0.00,VWS V14.01,2013-03-15 04:11:00,
2013-03-15 00:16:00,38.7,9.9,30.18,West,270,2.7,3.6,30,0.00,,CLR,0.00,VWS V14.01,2013-03-15 04:16:00,
2013-03-15 00:21:00,39.2,9.6,30.18,West,270,2.7,2.7,29,0.00,,CLR,0.00,VWS V14.01,2013-03-15 04:21:00,
2013-03-15 00:26:00,38.8,9.3,30.18,West,270,0.0,2.7,29,0.00,,CLR,0.00,VWS V14.01,2013-03-15 04:26:00,
2013-03-15 00:31:00,39.0,9.5,30.18,West,270,2.2,2.2,29,0.00,,CLR,0.00,VWS V14.01,2013-03-15 04:31:00,
2013-03-15 00:36:00,38.5,9.8,30.18,West,270,0.0,0.0,30,0.00,,CLR,0.00,VWS V14.01,2013-03-15 04:36:00,
2013-03-15 00:41:00,38.1,11.6,30.18,West,270,0.0,0.0,33,0.00,,CLR,0.00,VWS V14.01,2013-03-15 04:41:00,
2013-03-15 00:46:00,37.6,10.4,30.18,West,270,0.0,0.0,32,0.00,,CLR,0.00,VWS V14.01,2013-03-15 04:46:00,
2013-03-15 00:51:00,37.2,10.1,30.18,West,270,0.0,0.0,32,0.00,,CLR,0.00,VWS V14.01,2013-03-15 04:51:00,
2013-03-15 00:56:00,37.6,9.0,30.18,West,270,2.2,2.2,30,0.00,,CLR,0.00,VWS V14.01,2013-03-15 04:56:00,
2013-03-15 01:01:00,37.9,9.3,30.18,West,270,2.2,2.2,30,0.00,,CLR,0.00,VWS V14.01,2013-03-15 05:01:00,
2013-03-15 01:07:00,37.9,9.3,30.18,West,270,0.0,2.2,30,0.00,,CLR,0.00,VWS V14.01,2013-03-15 05:07:00,
2013-03-15 01:12:00,37.0,13.2,30.18,West,270,0.0,0.0,37,0.00,,CLR,0.00,VWS V14.01,2013-03-15 05:12:00,
2013-03-15 01:17:00,36.7,11.6,30.18,West,270,0.0,0.0,35,0.00,,CLR,0.00,VWS V14.01,2013-03-15 05:17:00,
2013-03-15 01:22:00,36.5,11.5,30.18,West,270,0.0,0.0,35,0.00,,CLR,0.00,VWS V14.01,2013-03-15 05:22:00,
2013-03-15 01:27:00,36.1,10.5,30.18,West,270,0.0,0.0,34,0.00,,CLR,0.00,VWS V14.01,2013-03-15 05:27:00,
2013-03-15 01:32:00,36.1,11.8,30.18,West,270,0.0,0.0,36,0.00,,CLR,0.00,VWS V14.01,2013-03-15 05:32:00,
2013-03-15 01:37:00,36.0,12.2,30.18,West,270,0.0,0.0,37,0.00,,CLR,0.00,VWS V14.01,2013-03-15 05:37:00,
2013-03-15 01:42:00,35.6,13.7,30.18,West,270,0.0,0.0,40,0.00,,CLR,0.00,VWS V14.01,2013-03-15 05:42:00,
2013-03-15 01:47:00,35.4,13.5,30.18,West,270,0.0,0.0,40,0.00,,CLR,0.00,VWS V14.01,2013-03-15 05:47:00,
2013-03-15 01:52:00,35.4,11.1,30.18,West,270,0.0,0.0,36,0.00,,CLR,0.00,VWS V14.01,2013-03-15 05:52:00,
2013-03-15 01:57:00,35.4,13.5,30.18,West,270,0.0,0.0,40,0.00,,CLR,0.00,VWS V14.01,2013-03-15 05:57:00,
2013-03-15 02:02:00,35.2,13.4,30.18,West,270,0.0,0.0,40,0.00,,CLR,0.00,VWS V14.01,2013-03-15 06:02:00,
2013-03-15 02:07:00,34.9,13.0,30.18,West,270,0.0,0.0,40,0.00,,CLR,0.00,VWS V14.01,2013-03-15 06:07:00,
2013-03-15 02:12:00,34.7,12.9,30.18,West,270,0.0,0.0,40,0.00,,CLR,0.00,VWS V14.01,2013-03-15 06:12:00,
2013-03-15 02:18:00,35.4,9.9,30.18,West,270,0.0,3.6,34,0.00,,CLR,0.00,VWS V14.01,2013-03-15 06:18:00,
2013-03-15 02:23:00,34.9,13.0,30.18,West,270,0.0,0.0,40,0.00,,CLR,0.00,VWS V14.01,2013-03-15 06:23:00,
2013-03-15 02:28:00,34.5,13.3,30.18,West,270,0.0,0.0,41,0.00,,CLR,0.00,VWS V14.01,2013-03-15 06:28:00,
2013-03-15 02:33:00,35.2,10.3,30.18,West,270,0.0,0.0,35,0.00,,CLR,0.00,VWS V14.01,2013-03-15 06:33:00,
2013-03-15 02:38:00,35.2,9.0,30.15,West,270,0.0,0.0,33,0.00,,CLR,0.00,VWS V14.01,2013-03-15 06:38:00,
2013-03-15 02:43:00,35.2,10.3,30.15,West,270,0.0,0.0,35,0.00,,CLR,0.00,VWS V14.01,2013-03-15 06:43:00,
2013-03-15 02:48:00,35.6,8.7,30.15,West,270,0.0,0.0,32,0.00,,CLR,0.00,VWS V14.01,2013-03-15 06:48:00,
2013-03-15 02:53:00,35.6,8.7,30.15,West,270,2.2,2.2,32,0.00,,CLR,0.00,VWS V14.01,2013-03-15 06:53:00,
2013-03-15 02:58:00,35.8,8.8,30.15,West,270,2.7,2.7,32,0.00,,CLR,0.00,VWS V14.01,2013-03-15 06:58:00,
2013-03-15 03:03:00,35.6,8.7,30.15,West,270,0.0,0.0,32,0.00,,SCT110,0.00,VWS V14.01,2013-03-15 07:03:00,
2013-03-15 03:08:00,35.4,7.8,30.15,West,270,0.0,2.2,31,0.00,,SCT110,0.00,VWS V14.01,2013-03-15 07:08:00,
2013-03-15 03:13:00,36.0,8.3,30.15,West,270,0.0,0.0,31,0.00,,SCT110,0.00,VWS V14.01,2013-03-15 07:13:00,
2013-03-15 03:18:00,35.1,9.5,30.15,South,180,2.2,3.1,34,0.00,,SCT110,0.00,VWS V14.01,2013-03-15 07:18:00,
2013-03-15 03:23:00,34.9,9.4,30.15,South,180,0.0,2.2,34,0.00,,SCT110,0.00,VWS V14.01,2013-03-15 07:23:00,
2013-03-15 03:28:00,34.3,9.5,30.15,South,180,0.0,0.0,35,0.00,,SCT110,0.00,VWS V14.01,2013-03-15 07:28:00,
2013-03-15 03:34:00,34.3,9.5,30.15,South,180,0.0,0.0,35,0.00,,SCT110,0.00,VWS V14.01,2013-03-15 07:34:00,
2013-03-15 03:39:00,33.8,9.7,30.15,South,180,0.0,0.0,36,0.00,,SCT110,0.17,VWS V14.01,2013-03-15 07:39:00,
2013-03-15 03:44:00,34.0,9.2,30.15,South,180,2.2,2.7,35,0.00,,SCT110,0.00,VWS V14.01,2013-03-15 07:44:00,
2013-03-15 03:49:00,33.8,9.1,30.15,South,180,0.0,0.0,35,0.00,,SCT110,0.00,VWS V14.01,2013-03-15 07:49:00,
2013-03-15 03:54:00,33.8,9.7,30.15,South,180,0.0,0.0,36,0.00,,SCT110,0.00,VWS V14.01,2013-03-15 07:54:00,
2013-03-15 03:59:00,33.3,10.4,30.15,South,180,0.0,0.0,38,0.00,,SCT110,0.00,VWS V14.01,2013-03-15 07:59:00,
2013-03-15 04:04:00,32.9,11.2,30.15,South,180,0.0,0.0,40,0.00,,CLR,0.00,VWS V14.01,2013-03-15 08:04:00,
2013-03-15 04:09:00,32.5,10.9,30.15,South,180,0.0,0.0,40,0.00,,CLR,0.00,VWS V14.01,2013-03-15 08:09:00,
2013-03-15 04:14:00,32.2,11.1,30.15,South,180,2.7,2.7,41,0.00,,CLR,0.00,VWS V14.01,2013-03-15 08:14:00,
2013-03-15 04:19:00,31.3,10.9,30.15,South,180,0.0,0.0,42,0.00,,CLR,0.00,VWS V14.01,2013-03-15 08:19:00,
2013-03-15 04:24:00,30.7,11.4,30.15,South,180,0.0,0.0,44,0.00,,CLR,0.00,VWS V14.01,2013-03-15 08:24:00,
2013-03-15 04:29:00,30.2,13.4,30.15,South,180,2.2,2.2,49,0.00,,CLR,0.00,VWS V14.01,2013-03-15 08:29:00,
2013-03-15 04:34:00,29.7,14.2,30.12,South,180,0.0,0.0,52,0.00,,CLR,0.00,VWS V14.01,2013-03-15 08:34:00,
2013-03-15 04:39:00,29.3,14.3,30.12,South,180,2.7,2.7,53,0.00,,CLR,0.00,VWS V14.01,2013-03-15 08:39:00,
2013-03-15 04:44:00,29.3,14.7,30.12,South,180,2.2,2.2,54,0.00,,CLR,0.00,VWS V14.01,2013-03-15 08:44:00,
2013-03-15 04:49:00,29.1,14.6,30.12,South,180,0.0,0.0,54,0.00,,CLR,0.00,VWS V14.01,2013-03-15 08:49:00,
2013-03-15 04:54:00,28.8,14.6,30.15,South,180,0.0,0.0,55,0.00,,CLR,0.00,VWS V14.01,2013-03-15 08:54:00,
2013-03-15 04:59:00,28.6,15.3,30.15,South,180,0.0,0.0,57,0.00,,CLR,0.00,VWS V14.01,2013-03-15 08:59:00,
2013-03-15 05:05:00,28.2,15.4,30.15,South,180,0.0,0.0,58,0.00,,CLR,0.00,VWS V14.01,2013-03-15 09:05:00,
2013-03-15 05:10:00,28.6,16.1,30.15,South,180,2.2,2.2,59,0.00,,CLR,0.00,VWS V14.01,2013-03-15 09:10:00,
2013-03-15 05:15:00,29.5,16.1,30.15,South,180,0.0,2.2,57,0.00,,CLR,0.00,VWS V14.01,2013-03-15 09:15:00,
2013-03-15 05:20:00,29.3,14.7,30.12,South,180,0.0,0.0,54,0.00,,CLR,0.00,VWS V14.01,2013-03-15 09:20:00,
2013-03-15 05:25:00,28.6,14.9,30.12,South,180,2.2,2.2,56,0.00,,CLR,0.00,VWS V14.01,2013-03-15 09:25:00,
2013-03-15 05:30:00,28.4,15.5,30.12,South,180,0.0,0.0,58,0.00,,CLR,0.00,VWS V14.01,2013-03-15 09:30:00,
2013-03-15 05:35:00,28.0,16.0,30.12,South,180,0.0,0.0,60,0.00,,CLR,0.00,VWS V14.01,2013-03-15 09:35:00,
2013-03-15 05:40:00,27.7,16.0,30.12,South,180,0.0,0.0,61,0.00,,CLR,0.00,VWS V14.01,2013-03-15 09:40:00,
2013-03-15 05:45:00,27.3,16.4,30.12,South,180,0.0,0.0,63,0.00,,CLR,0.00,VWS V14.01,2013-03-15 09:45:00,
2013-03-15 05:50:00,27.0,16.4,30.12,South,180,0.0,0.0,64,0.00,,CLR,0.00,VWS V14.01,2013-03-15 09:50:00,
2013-03-15 05:55:00,27.0,17.1,30.12,South,180,0.0,0.0,66,0.00,,CLR,0.00,VWS V14.01,2013-03-15 09:55:00,
2013-03-15 06:00:00,26.8,17.6,30.12,South,180,0.0,0.0,68,0.00,,CLR,0.00,VWS V14.01,2013-03-15 10:00:00,
2013-03-15 06:05:00,26.6,17.8,30.12,South,180,0.0,0.0,69,0.00,,CLR,0.00,VWS V14.01,2013-03-15 10:05:00,
2013-03-15 06:10:00,26.6,18.1,30.12,South,180,0.0,0.0,70,0.00,,CLR,0.00,VWS V14.01,2013-03-15 10:10:00,
2013-03-15 06:16:00,26.2,17.8,30.12,South,180,0.0,0.0,70,0.00,,CLR,0.00,VWS V14.01,2013-03-15 10:16:00,
2013-03-15 06:21:00,26.8,18.0,30.15,South,180,0.0,0.0,69,0.00,,CLR,0.00,VWS V14.01,2013-03-15 10:21:00,
2013-03-15 06:26:00,26.4,17.6,30.15,South,180,0.0,0.0,69,0.00,,CLR,0.00,VWS V14.01,2013-03-15 10:26:00,
2013-03-15 06:31:00,26.8,17.6,30.15,South,180,0.0,0.0,68,0.00,,CLR,0.00,VWS V14.01,2013-03-15 10:31:00,
2013-03-15 06:36:00,26.4,16.3,30.15,South,180,0.0,0.0,65,0.00,,CLR,0.00,VWS V14.01,2013-03-15 10:36:00,
2013-03-15 06:41:00,26.6,16.1,30.15,South,180,2.2,2.7,64,0.00,,CLR,0.00,VWS V14.01,2013-03-15 10:41:00,
2013-03-15 06:47:00,26.6,16.8,30.15,South,180,0.0,0.0,66,0.00,,CLR,0.00,VWS V14.01,2013-03-15 10:47:00,
2013-03-15 06:52:00,26.8,17.3,30.15,South,180,0.0,0.0,67,0.00,,CLR,0.00,VWS V14.01,2013-03-15 10:52:00,
2013-03-15 06:57:00,26.4,17.0,30.15,South,180,0.0,0.0,67,0.00,,CLR,0.00,VWS V14.01,2013-03-15 10:57:00,
2013-03-15 07:02:00,26.2,16.8,30.15,South,180,0.0,0.0,67,0.00,,CLR,0.00,VWS V14.01,2013-03-15 11:02:00,
2013-03-15 07:07:00,26.1,17.3,30.15,South,180,0.0,0.0,69,0.00,,CLR,0.00,VWS V14.01,2013-03-15 11:07:00,
2013-03-15 07:12:00,26.2,17.8,30.15,South,180,0.0,0.0,70,0.00,,CLR,0.00,VWS V14.01,2013-03-15 11:12:00,
2013-03-15 07:17:00,26.1,18.0,30.15,South,180,0.0,0.0,71,0.00,,CLR,0.00,VWS V14.01,2013-03-15 11:17:00,
2013-03-15 07:22:00,26.1,18.6,30.15,South,180,0.0,0.0,73,0.00,,CLR,0.00,VWS V14.01,2013-03-15 11:22:00,
2013-03-15 07:27:00,26.1,18.6,30.15,South,180,0.0,0.0,73,0.00,,CLR,0.00,VWS V14.01,2013-03-15 11:27:00,
2013-03-15 07:32:00,26.6,19.4,30.15,South,180,0.0,0.0,74,0.00,,CLR,0.00,VWS V14.01,2013-03-15 11:32:00,
2013-03-15 07:37:00,26.2,19.1,30.15,South,180,0.0,0.0,74,0.00,,CLR,0.00,VWS V14.01,2013-03-15 11:37:00,
2013-03-15 07:42:00,26.2,19.1,30.15,South,180,0.0,0.0,74,0.00,,CLR,0.00,VWS V14.01,2013-03-15 11:42:00,
2013-03-15 07:47:00,26.4,19.6,30.15,South,180,2.7,2.7,75,0.00,,CLR,0.00,VWS V14.01,2013-03-15 11:47:00,
2013-03-15 07:52:00,26.4,19.6,30.15,South,180,0.0,2.7,75,0.00,,CLR,0.00,VWS V14.01,2013-03-15 11:52:00,
2013-03-15 07:57:00,26.6,19.8,30.15,South,180,0.0,0.0,75,0.00,,CLR,0.00,VWS V14.01,2013-03-15 11:57:00,
2013-03-15 08:02:00,26.6,19.8,30.15,South,180,0.0,0.0,75,0.00,,CLR,0.00,VWS V14.01,2013-03-15 12:02:00,
2013-03-15 08:07:00,26.8,19.6,30.15,South,180,0.0,0.0,74,0.00,,CLR,0.00,VWS V14.01,2013-03-15 12:07:00,
2013-03-15 08:12:00,27.1,20.0,30.15,South,180,0.0,0.0,74,0.00,,CLR,0.00,VWS V14.01,2013-03-15 12:12:00,
2013-03-15 08:17:00,27.3,20.1,30.15,South,180,0.0,0.0,74,0.00,,CLR,0.00,VWS V14.01,2013-03-15 12:17:00,
2013-03-15 08:22:00,28.0,20.5,30.15,South,180,0.0,2.2,73,0.00,,CLR,0.00,VWS V14.01,2013-03-15 12:22:00,
2013-03-15 08:28:00,28.6,20.4,30.15,South,180,0.0,0.0,71,0.00,,CLR,0.00,VWS V14.01,2013-03-15 12:28:00,
2013-03-15 08:33:00,29.1,20.6,30.15,South,180,0.0,0.0,70,0.00,,CLR,0.00,VWS V14.01,2013-03-15 12:33:00,
2013-03-15 08:38:00,29.5,20.9,30.15,South,180,0.0,0.0,70,0.00,,CLR,0.00,VWS V14.01,2013-03-15 12:38:00,
2013-03-15 08:43:00,30.7,21.1,30.15,South,180,0.0,0.0,67,0.00,,CLR,0.00,VWS V14.01,2013-03-15 12:43:00,
2013-03-15 08:48:00,31.6,21.2,30.15,South,180,0.0,0.0,65,0.00,,CLR,0.00,VWS V14.01,2013-03-15 12:48:00,
2013-03-15 08:53:00,32.2,21.4,30.15,South,180,0.0,0.0,64,0.00,,CLR,0.00,VWS V14.01,2013-03-15 12:53:00,
2013-03-15 08:58:00,33.4,19.9,30.15,South,180,0.0,0.0,57,0.00,,CLR,0.00,VWS V14.01,2013-03-15 12:58:00,
2013-03-15 09:03:00,34.5,19.2,30.15,South,180,0.0,0.0,53,0.00,,CLR,0.00,VWS V14.01,2013-03-15 13:03:00,
2013-03-15 09:08:00,36.1,18.4,30.15,South,180,0.0,0.0,48,0.00,,CLR,0.00,VWS V14.01,2013-03-15 13:08:00,
2013-03-15 09:13:00,36.7,16.8,30.15,SSE,158,3.1,3.1,44,0.00,,CLR,0.00,VWS V14.01,2013-03-15 13:13:00,
2013-03-15 09:18:00,37.0,16.1,30.15,SSE,158,0.0,0.0,42,0.00,,CLR,0.00,VWS V14.01,2013-03-15 13:18:00,
2013-03-15 09:23:00,37.0,15.5,30.15,SSE,158,0.0,0.0,41,0.00,,CLR,0.00,VWS V14.01,2013-03-15 13:23:00,
2013-03-15 09:28:00,37.6,15.5,30.15,SSE,158,0.0,0.0,40,0.00,,CLR,0.00,VWS V14.01,2013-03-15 13:28:00,
2013-03-15 09:33:00,38.1,16.5,30.15,SSE,158,0.0,2.2,41,0.00,,CLR,0.00,VWS V14.01,2013-03-15 13:33:00,
2013-03-15 09:38:00,38.7,16.4,30.15,SSE,158,0.0,0.0,40,0.00,,CLR,0.00,VWS V14.01,2013-03-15 13:38:00,
2013-03-15 09:44:00,39.6,17.2,30.15,SSE,158,2.2,2.7,40,0.00,,CLR,0.00,VWS V14.01,2013-03-15 13:44:00,
2013-03-15 09:49:00,39.9,17.6,30.15,SSE,158,0.0,0.0,40,0.00,,CLR,0.00,VWS V14.01,2013-03-15 13:49:00,
2013-03-15 09:54:00,40.6,17.6,30.15,South,180,2.2,2.7,39,0.00,,CLR,0.00,VWS V14.01,2013-03-15 13:54:00,
2013-03-15 09:59:00,41.2,18.1,30.15,South,180,2.2,2.2,39,0.00,,CLR,0.00,VWS V14.01,2013-03-15 13:59:00,
2013-03-15 10:04:00,41.9,18.2,30.15,South,180,2.2,2.2,38,0.00,,CLR,0.00,VWS V14.01,2013-03-15 14:04:00,
2013-03-15 10:09:00,42.4,17.4,30.15,SSE,158,3.1,3.1,36,0.00,,CLR,0.00,VWS V14.01,2013-03-15 14:09:00,
2013-03-15 10:14:00,43.0,17.2,30.15,WSW,248,0.0,0.0,35,0.00,,CLR,0.00,VWS V14.01,2013-03-15 14:14:00,
2013-03-15 10:19:00,43.7,16.5,30.15,South,180,0.0,0.0,33,0.00,,CLR,0.00,VWS V14.01,2013-03-15 14:19:00,
2013-03-15 10:24:00,44.4,17.1,30.12,SW,225,3.6,3.6,33,0.00,,CLR,0.00,VWS V14.01,2013-03-15 14:24:00,
2013-03-15 10:29:00,45.7,18.2,30.12,South,180,0.0,3.1,33,0.00,,CLR,0.00,VWS V14.01,2013-03-15 14:29:00,
2013-03-15 10:34:00,45.9,17.0,30.12,SSW,202,2.7,2.7,31,0.00,,CLR,0.00,VWS V14.01,2013-03-15 14:34:00,
2013-03-15 10:39:00,46.4,16.7,30.12,SSW,202,3.1,4.0,30,0.00,,CLR,0.00,VWS V14.01,2013-03-15 14:39:00,
2013-03-15 10:44:00,47.1,17.3,30.12,WSW,248,3.6,4.9,30,0.00,,CLR,0.00,VWS V14.01,2013-03-15 14:44:00,
2013-03-15 10:49:00,47.7,17.8,30.12,WSW,248,3.1,4.0,30,0.00,,CLR,0.00,VWS V14.01,2013-03-15 14:49:00,
2013-03-15 10:54:00,47.8,17.1,30.12,WSW,248,2.7,2.7,29,0.00,,CLR,0.00,VWS V14.01,2013-03-15 14:54:00,
2013-03-15 10:59:00,48.6,17.8,30.12,WSW,248,3.6,3.6,29,0.00,,CLR,0.00,VWS V14.01,2013-03-15 14:59:00,
2013-03-15 11:04:00,48.9,18.1,30.12,SW,225,2.2,2.2,29,0.00,,CLR,0.00,VWS V14.01,2013-03-15 15:04:00,
2013-03-15 11:09:00,49.6,17.9,30.12,SSW,202,2.2,3.6,28,0.00,,CLR,0.00,VWS V14.01,2013-03-15 15:09:00,
2013-03-15 11:14:00,50.4,18.5,30.12,SW,225,5.4,5.4,28,0.00,,CLR,0.00,VWS V14.01,2013-03-15 15:14:00,
2013-03-15 11:19:00,51.4,19.4,30.12,SW,225,3.1,3.1,28,0.00,,CLR,0.00,VWS V14.01,2013-03-15 15:19:00,
2013-03-15 11:24:00,52.0,19.1,30.12,WSW,248,3.1,3.6,27,0.00,,CLR,0.00,VWS V14.01,2013-03-15 15:24:00,
2013-03-15 11:29:00,53.1,20.0,30.12,SSW,202,0.0,0.0,27,0.00,,CLR,0.00,VWS V14.01,2013-03-15 15:29:00,
2013-03-15 11:35:00,54.1,20.0,30.09,SSE,158,4.0,7.2,26,0.00,,CLR,0.00,VWS V14.01,2013-03-15 15:35:00,
2013-03-15 11:40:00,54.3,20.2,30.09,SSW,202,2.2,2.2,26,0.00,,CLR,0.00,VWS V14.01,2013-03-15 15:40:00,
2013-03-15 11:45:00,54.5,20.3,30.09,SE,135,3.1,4.9,26,0.00,,CLR,0.00,VWS V14.01,2013-03-15 15:45:00,
2013-03-15 11:50:00,56.3,21.0,30.09,WSW,248,4.0,4.0,25,0.00,,CLR,0.00,VWS V14.01,2013-03-15 15:50:00,
2013-03-15 11:55:00,55.6,20.3,30.09,SW,225,3.6,3.6,25,0.00,,CLR,0.00,VWS V14.01,2013-03-15 15:55:00,
2013-03-15 12:00:00,56.1,20.8,30.09,SW,225,2.7,4.9,25,0.00,,CLR,0.17,VWS V14.01,2013-03-15 16:00:00,
2013-03-15 12:05:00,56.8,21.4,30.09,SE,135,3.6,3.6,25,0.00,,CLR,0.00,VWS V14.01,2013-03-15 16:05:00,
2013-03-15 12:10:00,57.0,21.6,30.09,WNW,292,8.7,8.7,25,0.00,,CLR,0.00,VWS V14.01,2013-03-15 16:10:00,
2013-03-15 12:15:00,57.2,21.7,30.09,SSE,158,4.9,4.9,25,0.00,,CLR,0.00,VWS V14.01,2013-03-15 16:15:00,
2013-03-15 12:20:00,57.4,21.9,30.09,SSW,202,3.1,4.9,25,0.00,,CLR,0.00,VWS V14.01,2013-03-15 16:20:00,
2013-03-15 12:25:00,58.3,22.6,30.09,WNW,292,5.4,5.4,25,0.00,,CLR,0.00,VWS V14.01,2013-03-15 16:25:00,
2013-03-15 12:30:00,58.3,21.7,30.09,WNW,292,3.6,4.0,24,0.00,,CLR,0.00,VWS V14.01,2013-03-15 16:30:00,
2013-03-15 12:35:00,58.1,21.5,30.09,WNW,292,4.0,8.3,24,0.00,,CLR,0.00,VWS V14.01,2013-03-15 16:35:00,
2013-03-15 12:40:00,58.5,21.8,30.09,WSW,248,3.6,3.6,24,0.00,,CLR,0.00,VWS V14.01,2013-03-15 16:40:00,
2013-03-15 12:45:00,58.3,21.7,30.09,WSW,248,4.0,5.8,24,0.00,,CLR,0.00,VWS V14.01,2013-03-15 16:45:00,
2013-03-15 12:50:00,59.4,22.6,30.06,SSW,202,4.9,4.9,24,0.00,,CLR,0.00,VWS V14.01,2013-03-15 16:50:00,
2013-03-15 12:55:00,59.0,22.3,30.06,South,180,5.8,5.8,24,0.00,,CLR,0.00,VWS V14.01,2013-03-15 16:55:00,
2013-03-15 13:01:00,59.0,22.3,30.06,WSW,248,3.6,4.0,24,0.00,,CLR,0.00,VWS V14.01,2013-03-15 17:01:00,
2013-03-15 13:06:00,59.5,22.7,30.06,South,180,3.6,4.5,24,0.00,,CLR,0.00,VWS V14.01,2013-03-15 17:06:00,
2013-03-15 13:11:00,59.7,22.9,30.06,SW,225,4.9,6.3,24,0.00,,CLR,0.00,VWS V14.01,2013-03-15 17:11:00,
2013-03-15 13:16:00,59.7,22.9,30.06,WSW,248,8.1,8.1,24,0.00,,CLR,0.00,VWS V14.01,2013-03-15 17:16:00,
2013-03-15 13:21:00,59.5,22.7,30.06,WNW,292,4.0,6.3,24,0.00,,CLR,0.00,VWS V14.01,2013-03-15 17:21:00,
2013-03-15 13:26:00,60.1,23.2,30.06,WSW,248,2.7,6.3,24,0.00,,CLR,0.00,VWS V14.01,2013-03-15 17:26:00,
2013-03-15 13:31:00,60.4,23.5,30.06,SSE,158,5.8,7.2,24,0.00,,CLR,0.00,VWS V14.01,2013-03-15 17:31:00,
2013-03-15 13:36:00,60.1,23.2,30.06,South,180,9.6,9.6,24,0.00,,CLR,0.00,VWS V14.01,2013-03-15 17:36:00,
2013-03-15 13:41:00,60.8,23.8,30.06,South,180,2.2,3.6,24,0.00,,CLR,0.00,VWS V14.01,2013-03-15 17:41:00,
2013-03-15 13:46:00,60.6,23.6,30.06,ESE,112,4.0,4.9,24,0.00,,CLR,0.00,VWS V14.01,2013-03-15 17:46:00,
2013-03-15 13:51:00,62.2,25.0,30.03,WNW,292,3.6,3.6,24,0.00,,CLR,0.00,VWS V14.01,2013-03-15 17:51:00,
2013-03-15 13:56:00,62.8,22.3,30.03,SSW,202,8.1,8.1,21,0.00,,CLR,0.00,VWS V14.01,2013-03-15 17:56:00,
2013-03-15 14:01:00,63.5,25.1,30.03,SSE,158,6.3,7.2,23,0.00,,CLR,0.00,VWS V14.01,2013-03-15 18:01:00,
2013-03-15 14:06:00,63.5,25.1,30.03,WSW,248,6.3,6.3,23,0.00,,CLR,0.00,VWS V14.01,2013-03-15 18:06:00,
2013-03-15 14:12:00,62.4,25.2,30.03,South,180,4.0,5.4,24,0.00,,CLR,0.00,VWS V14.01,2013-03-15 18:12:00,
2013-03-15 14:16:00,63.3,22.8,30.03,WNW,292,3.1,7.2,21,0.00,,CLR,0.00,VWS V14.01,2013-03-15 18:16:00,
2013-03-15 14:22:00,63.0,22.5,30.00,SSW,202,4.0,4.5,21,0.00,,CLR,0.00,VWS V14.01,2013-03-15 18:22:00,
2013-03-15 14:27:00,63.3,22.8,30.00,WSW,248,4.0,5.8,21,0.00,,CLR,0.00,VWS V14.01,2013-03-15 18:27:00,
2013-03-15 14:32:00,64.2,23.5,30.00,WSW,248,5.4,5.4,21,0.00,,CLR,0.00,VWS V14.01,2013-03-15 18:32:00,
2013-03-15 14:37:00,63.9,23.2,30.00,WNW,292,5.4,5.4,21,0.00,,CLR,0.00,VWS V14.01,2013-03-15 18:37:00,
2013-03-15 14:42:00,64.4,22.5,30.00,SW,225,5.4,5.4,20,0.00,,CLR,0.00,VWS V14.01,2013-03-15 18:42:00,
2013-03-15 14:47:00,64.6,22.6,30.00,WSW,248,5.4,5.4,20,0.00,,CLR,0.00,VWS V14.01,2013-03-15 18:47:00,
2013-03-15 14:52:00,65.1,23.1,30.00,South,180,4.5,6.3,20,0.00,,CLR,0.00,VWS V14.01,2013-03-15 18:52:00,
2013-03-15 14:57:00,65.7,23.5,30.00,WNW,292,4.5,7.2,20,0.00,,CLR,0.00,VWS V14.01,2013-03-15 18:57:00,
2013-03-15 15:02:00,66.4,24.1,30.00,SSW,202,2.7,2.7,20,0.00,,CLR,0.00,VWS V14.01,2013-03-15 19:02:00,
2013-03-15 15:07:00,65.8,23.7,29.97,SW,225,3.6,3.6,20,0.00,,CLR,0.00,VWS V14.01,2013-03-15 19:07:00,
2013-03-15 15:12:00,66.4,24.1,29.97,NW,315,4.0,4.0,20,0.00,,CLR,0.00,VWS V14.01,2013-03-15 19:12:00,
2013-03-15 15:17:00,66.7,24.4,29.97,WSW,248,5.8,6.3,20,0.00,,CLR,0.00,VWS V14.01,2013-03-15 19:17:00,
2013-03-15 15:22:00,66.2,24.0,29.97,WSW,248,5.8,5.8,20,0.00,,CLR,0.00,VWS V14.01,2013-03-15 19:22:00,
2013-03-15 15:27:00,66.0,23.8,29.97,SW,225,4.0,5.4,20,0.00,,CLR,0.00,VWS V14.01,2013-03-15 19:27:00,
2013-03-15 15:32:00,66.9,24.6,29.97,SSW,202,3.1,3.6,20,0.00,,CLR,0.00,VWS V14.01,2013-03-15 19:32:00,
2013-03-15 15:37:00,66.7,24.4,29.97,West,270,5.8,6.3,20,0.00,,CLR,0.00,VWS V14.01,2013-03-15 19:37:00,
2013-03-15 15:42:00,66.9,24.6,29.97,West,270,5.4,6.3,20,0.00,,CLR,0.00,VWS V14.01,2013-03-15 19:42:00,
2013-03-15 15:47:00,67.5,25.0,29.97,WSW,248,3.6,4.9,20,0.00,,CLR,0.00,VWS V14.01,2013-03-15 19:47:00,
2013-03-15 15:52:00,68.0,25.5,29.94,SSW,202,8.1,8.1,20,0.00,,CLR,0.00,VWS V14.01,2013-03-15 19:52:00,
2013-03-15 15:58:00,67.6,25.2,29.94,South,180,4.0,5.4,20,0.00,,CLR,0.00,VWS V14.01,2013-03-15 19:58:00,
2013-03-15 16:03:00,68.0,25.5,29.94,WSW,248,6.7,7.6,20,0.00,,CLR,0.00,VWS V14.01,2013-03-15 20:03:00,
2013-03-15 16:08:00,68.4,25.8,29.94,WSW,248,4.9,4.9,20,0.00,,CLR,0.00,VWS V14.01,2013-03-15 20:08:00,
2013-03-15 16:13:00,68.7,26.1,29.94,SW,225,2.7,5.8,20,0.00,,CLR,0.00,VWS V14.01,2013-03-15 20:13:00,
2013-03-15 16:18:00,67.6,25.2,29.94,WSW,248,3.6,3.6,20,0.00,,CLR,0.00,VWS V14.01,2013-03-15 20:18:00,
2013-03-15 16:23:00,68.0,25.5,29.94,WNW,292,0.0,3.1,20,0.00,,CLR,0.00,VWS V14.01,2013-03-15 20:23:00,
2013-03-15 16:28:00,68.5,25.9,29.94,SSW,202,4.0,8.3,20,0.00,,CLR,0.00,VWS V14.01,2013-03-15 20:28:00,
2013-03-15 16:33:00,67.5,25.0,29.94,SSE,158,2.7,2.7,20,0.00,,CLR,0.00,VWS V14.01,2013-03-15 20:33:00,
2013-03-15 16:38:00,67.5,25.0,29.94,SSE,158,3.1,3.1,20,0.00,,CLR,0.00,VWS V14.01,2013-03-15 20:38:00,
2013-03-15 16:43:00,68.0,25.5,29.94,SW,225,4.9,4.9,20,0.00,,CLR,0.00,VWS V14.01,2013-03-15 20:43:00,
2013-03-15 16:48:00,67.6,25.2,29.94,WSW,248,4.0,4.9,20,0.00,,CLR,0.00,VWS V14.01,2013-03-15 20:48:00,
2013-03-15 16:53:00,67.1,24.7,29.91,SSE,158,3.6,3.6,20,0.00,,CLR,0.00,VWS V14.01,2013-03-15 20:53:00,
2013-03-15 16:58:00,67.3,24.9,29.91,West,270,2.7,3.6,20,0.00,,CLR,0.00,VWS V14.01,2013-03-15 20:58:00,
2013-03-15 17:03:00,67.1,24.7,29.91,SSW,202,4.9,4.9,20,0.00,,CLR,0.00,VWS V14.01,2013-03-15 21:03:00,
2013-03-15 17:08:00,67.1,24.7,29.94,West,270,2.7,3.6,20,0.00,,CLR,0.00,VWS V14.01,2013-03-15 21:08:00,
2013-03-15 17:13:00,67.5,25.0,29.94,South,180,2.2,4.9,20,0.00,,CLR,0.00,VWS V14.01,2013-03-15 21:13:00,
2013-03-15 17:19:00,67.8,25.3,29.94,WSW,248,2.7,6.3,20,0.00,,CLR,0.00,VWS V14.01,2013-03-15 21:19:00,
2013-03-15 17:24:00,67.6,25.2,29.91,South,180,5.4,7.2,20,0.00,,CLR,0.00,VWS V14.01,2013-03-15 21:24:00,
2013-03-15 17:29:00,67.5,25.0,29.91,SSW,202,3.6,6.3,20,0.00,,CLR,0.00,VWS V14.01,2013-03-15 21:29:00,
2013-03-15 17:34:00,67.1,24.7,29.91,SSW,202,4.0,4.5,20,0.00,,CLR,0.00,VWS V14.01,2013-03-15 21:34:00,
2013-03-15 17:39:00,67.1,24.7,29.91,SW,225,2.7,3.6,20,0.00,,CLR,0.00,VWS V14.01,2013-03-15 21:39:00,
2013-03-15 17:44:00,66.7,24.4,29.91,SSW,202,6.3,6.3,20,0.00,,CLR,0.00,VWS V14.01,2013-03-15 21:44:00,
2013-03-15 17:49:00,66.7,24.4,29.91,WSW,248,0.0,3.6,20,0.00,,CLR,0.00,VWS V14.01,2013-03-15 21:49:00,
2013-03-15 17:54:00,66.6,24.3,29.91,WSW,248,2.7,3.6,20,0.00,,CLR,0.00,VWS V14.01,2013-03-15 21:54:00,
2013-03-15 17:59:00,66.2,24.0,29.91,WSW,248,2.7,3.6,20,0.00,,CLR,0.00,VWS V14.01,2013-03-15 21:59:00,
2013-03-15 18:04:00,66.2,24.0,29.91,SSW,202,4.0,5.4,20,0.00,,CLR,0.00,VWS V14.01,2013-03-15 22:04:00,
2013-03-15 18:09:00,65.8,23.7,29.91,SSW,202,3.6,3.6,20,0.00,,CLR,0.00,VWS V14.01,2013-03-15 22:09:00,
2013-03-15 18:14:00,65.5,26.7,29.91,SSE,158,3.6,3.6,23,0.00,,CLR,0.00,VWS V14.01,2013-03-15 22:14:00,
2013-03-15 18:19:00,65.3,26.6,29.91,SSW,202,2.7,4.0,23,0.00,,CLR,0.00,VWS V14.01,2013-03-15 22:19:00,
2013-03-15 18:24:00,65.5,26.7,29.91,South,180,3.1,4.0,23,0.00,,CLR,0.00,VWS V14.01,2013-03-15 22:24:00,
2013-03-15 18:29:00,65.3,26.6,29.91,SW,225,2.2,2.7,23,0.00,,CLR,0.00,VWS V14.01,2013-03-15 22:29:00,
2013-03-15 18:34:00,65.5,26.7,29.91,SSW,202,3.6,4.0,23,0.00,,CLR,0.00,VWS V14.01,2013-03-15 22:34:00,
2013-03-15 18:39:00,65.5,26.7,29.91,WSW,248,2.7,2.7,23,0.00,,CLR,0.00,VWS V14.01,2013-03-15 22:39:00,
2013-03-15 18:44:00,65.1,26.4,29.91,SW,225,2.7,4.0,23,0.00,,CLR,0.00,VWS V14.01,2013-03-15 22:44:00,
2013-03-15 18:50:00,64.8,26.1,29.91,SW,225,3.6,3.6,23,0.00,,CLR,0.00,VWS V14.01,2013-03-15 22:50:00,
2013-03-15 18:55:00,64.4,25.8,29.91,WSW,248,0.0,0.0,23,0.00,,CLR,0.00,VWS V14.01,2013-03-15 22:55:00,
2013-03-15 19:00:00,63.9,26.4,29.91,SW,225,2.7,3.1,24,0.00,,CLR,0.00,VWS V14.01,2013-03-15 23:00:00,
2013-03-15 19:05:00,63.5,26.1,29.91,SW,225,0.0,0.0,24,0.00,,CLR,0.00,VWS V14.01,2013-03-15 23:05:00,
2013-03-15 19:10:00,63.1,25.8,29.91,SW,225,3.1,3.1,24,0.00,,CLR,0.00,VWS V14.01,2013-03-15 23:10:00,
2013-03-15 19:15:00,62.8,25.5,29.91,SW,225,0.0,0.0,24,0.00,,CLR,0.00,VWS V14.01,2013-03-15 23:15:00,
2013-03-15 19:20:00,62.2,26.0,29.91,SW,225,0.0,2.2,25,0.00,,CLR,0.00,VWS V14.01,2013-03-15 23:20:00,
2013-03-15 19:25:00,61.9,25.7,29.91,SW,225,0.0,0.0,25,0.00,,CLR,0.00,VWS V14.01,2013-03-15 23:25:00,
2013-03-15 19:30:00,61.5,25.4,29.91,SW,225,0.0,0.0,25,0.00,,CLR,0.00,VWS V14.01,2013-03-15 23:30:00,
2013-03-15 19:35:00,61.0,24.9,29.91,SW,225,0.0,0.0,25,0.00,,CLR,0.00,VWS V14.01,2013-03-15 23:35:00,
2013-03-15 19:40:00,60.6,25.6,29.91,SW,225,0.0,0.0,26,0.00,,CLR,0.00,VWS V14.01,2013-03-15 23:40:00,
2013-03-15 19:45:00,59.9,25.0,29.91,SW,225,0.0,0.0,26,0.00,,CLR,0.00,VWS V14.01,2013-03-15 23:45:00,
2013-03-15 19:50:00,59.2,26.1,29.94,SW,225,0.0,0.0,28,0.00,,CLR,0.00,VWS V14.01,2013-03-15 23:50:00,
2013-03-15 19:55:00,58.8,25.8,29.94,SW,225,0.0,0.0,28,0.00,,CLR,0.00,VWS V14.01,2013-03-15 23:55:00,
2013-03-15 20:00:00,58.5,26.3,29.94,SW,225,0.0,0.0,29,0.00,,CLR,0.00,VWS V14.01,2013-03-16 00:00:00,
2013-03-15 20:05:00,58.3,27.0,29.94,SW,225,2.2,2.7,30,0.00,,CLR,0.00,VWS V14.01,2013-03-16 00:05:00,
2013-03-15 20:10:00,58.8,25.8,29.94,SW,225,0.0,0.0,28,0.00,,CLR,0.00,VWS V14.01,2013-03-16 00:10:00,
2013-03-15 20:15:00,58.8,25.8,29.94,SW,225,0.0,2.2,28,0.00,,CLR,0.00,VWS V14.01,2013-03-16 00:15:00,
2013-03-15 20:20:00,58.1,26.0,29.94,SW,225,0.0,0.0,29,0.00,,SCT085,0.00,VWS V14.01,2013-03-16 00:20:00,
2013-03-15 20:25:00,58.5,26.3,29.94,SW,225,0.0,0.0,29,0.00,,SCT085,0.00,VWS V14.01,2013-03-16 00:25:00,
2013-03-15 20:30:00,57.6,27.2,29.94,SW,225,0.0,0.0,31,0.00,,SCT085,0.00,VWS V14.01,2013-03-16 00:30:00,
2013-03-15 20:35:00,57.2,28.4,29.94,SW,225,0.0,0.0,33,0.00,,SCT085,0.00,VWS V14.01,2013-03-16 00:35:00,
2013-03-15 20:40:00,56.3,29.7,29.94,SW,225,0.0,0.0,36,0.00,,SCT085,0.00,VWS V14.01,2013-03-16 00:40:00,
2013-03-15 20:45:00,55.6,29.1,29.94,SW,225,0.0,0.0,36,0.00,,SCT085,0.00,VWS V14.01,2013-03-16 00:45:00,
2013-03-15 20:50:00,55.2,28.8,29.94,SW,225,0.0,0.0,36,0.00,,SCT085,0.00,VWS V14.01,2013-03-16 00:50:00,
2013-03-15 20:55:00,55.4,28.2,29.94,SW,225,0.0,2.2,35,0.00,,SCT085,0.00,VWS V14.01,2013-03-16 00:55:00,
2013-03-15 21:00:00,54.7,28.3,29.94,SW,225,0.0,0.0,36,0.00,,SCT085,0.00,VWS V14.01,2013-03-16 01:00:00,
2013-03-15 21:05:00,54.7,28.3,29.94,SW,225,0.0,0.0,36,0.00,,SCT085,0.00,VWS V14.01,2013-03-16 01:05:00,
2013-03-15 21:10:00,54.0,28.3,29.94,SW,225,0.0,0.0,37,0.00,,SCT085,0.00,VWS V14.01,2013-03-16 01:10:00,
2013-03-15 21:15:00,53.2,28.3,29.94,SW,225,0.0,0.0,38,0.00,,SCT085,0.00,VWS V14.01,2013-03-16 01:15:00,
2013-03-15 21:20:00,52.9,28.6,29.94,SW,225,0.0,0.0,39,0.00,,BKN085,0.00,VWS V14.01,2013-03-16 01:20:00,
2013-03-15 21:25:00,52.5,28.9,29.94,SW,225,0.0,0.0,40,0.00,,BKN085,0.00,VWS V14.01,2013-03-16 01:25:00,
2013-03-15 21:30:00,52.3,28.8,29.94,SW,225,2.7,2.7,40,0.00,,BKN085,0.00,VWS V14.01,2013-03-16 01:30:00,
2013-03-15 21:35:00,51.8,30.6,29.94,SW,225,0.0,0.0,44,0.00,,BKN085,0.00,VWS V14.01,2013-03-16 01:35:00,
2013-03-15 21:41:00,52.3,30.5,29.94,SW,225,0.0,2.2,43,0.00,,BKN085,0.00,VWS V14.01,2013-03-16 01:41:00,
2013-03-15 21:46:00,51.8,30.6,29.94,SW,225,0.0,0.0,44,0.00,,BKN085,0.00,VWS V14.01,2013-03-16 01:46:00,
2013-03-15 21:51:00,50.7,30.7,29.94,SW,225,2.2,2.2,46,0.00,,BKN085,0.00,VWS V14.01,2013-03-16 01:51:00,
2013-03-15 21:56:00,50.4,30.9,29.94,SW,225,0.0,0.0,47,0.00,,BKN085,0.00,VWS V14.01,2013-03-16 01:56:00,
2013-03-15 22:01:00,50.4,30.9,29.94,SW,225,0.0,0.0,47,0.00,,SCT090,0.00,VWS V14.01,2013-03-16 02:01:00,
2013-03-15 22:06:00,50.0,30.6,29.91,SW,225,0.0,0.0,47,0.00,,SCT090,0.00,VWS V14.01,2013-03-16 02:06:00,
2013-03-15 22:11:00,50.0,31.1,29.91,SW,225,0.0,0.0,48,0.00,,SCT090,0.00,VWS V14.01,2013-03-16 02:11:00,
2013-03-15 22:16:00,49.5,31.1,29.91,SW,225,0.0,0.0,49,0.00,,SCT090,0.00,VWS V14.01,2013-03-16 02:16:00,
2013-03-15 22:21:00,49.3,31.0,29.94,SW,225,0.0,0.0,49,0.00,,CLR,0.00,VWS V14.01,2013-03-16 02:21:00,
2013-03-15 22:26:00,48.9,30.6,29.94,SW,225,0.0,0.0,49,0.00,,CLR,0.00,VWS V14.01,2013-03-16 02:26:00,
2013-03-15 22:31:00,48.6,30.8,29.94,SW,225,0.0,0.0,50,0.00,,CLR,0.00,VWS V14.01,2013-03-16 02:31:00,
2013-03-15 22:36:00,48.6,31.3,29.91,SW,225,0.0,0.0,51,0.00,,CLR,0.00,VWS V14.01,2013-03-16 02:36:00,
2013-03-15 22:41:00,48.2,31.4,29.91,SW,225,0.0,0.0,52,0.00,,CLR,0.00,VWS V14.01,2013-03-16 02:41:00,
2013-03-15 22:46:00,48.7,31.9,29.91,SW,225,0.0,0.0,52,0.00,,CLR,0.00,VWS V14.01,2013-03-16 02:46:00,
2013-03-15 22:51:00,48.6,31.8,29.91,SW,225,0.0,2.7,52,0.00,,CLR,0.00,VWS V14.01,2013-03-16 02:51:00,
2013-03-15 22:57:00,48.4,31.6,29.91,SW,225,0.0,2.2,52,0.00,,CLR,0.00,VWS V14.01,2013-03-16 02:57:00,
2013-03-15 23:02:00,47.8,31.1,29.91,SW,225,0.0,0.0,52,0.00,,CLR,0.00,VWS V14.01,2013-03-16 03:02:00,
2013-03-15 23:07:00,47.5,31.2,29.91,SW,225,0.0,0.0,53,0.00,,CLR,0.00,VWS V14.01,2013-03-16 03:07:00,
2013-03-15 23:12:00,48.0,31.7,29.91,SW,225,0.0,0.0,53,0.00,,CLR,0.00,VWS V14.01,2013-03-16 03:12:00,
2013-03-15 23:17:00,47.5,31.2,29.91,SW,225,0.0,0.0,53,0.00,,CLR,0.00,VWS V14.01,2013-03-16 03:17:00,
2013-03-15 23:22:00,47.3,31.5,29.91,SW,225,0.0,0.0,54,0.00,,CLR,0.00,VWS V14.01,2013-03-16 03:22:00,
2013-03-15 23:27:00,47.1,31.4,29.91,SW,225,0.0,0.0,54,0.00,,CLR,0.00,VWS V14.01,2013-03-16 03:27:00,
2013-03-15 23:32:00,46.9,31.6,29.91,SW,225,0.0,0.0,55,0.00,,CLR,0.00,VWS V14.01,2013-03-16 03:32:00,
2013-03-15 23:37:00,46.6,32.2,29.91,SW,225,0.0,2.7,57,0.00,,CLR,0.00,VWS V14.01,2013-03-16 03:37:00,
2013-03-15 23:43:00,46.6,32.6,29.91,SW,225,2.2,2.2,58,0.00,,BKN110,0.00,VWS V14.01,2013-03-16 03:43:00,
2013-03-15 23:48:00,46.6,32.2,29.91,SW,225,0.0,0.0,57,0.00,,BKN110,0.00,VWS V14.01,2013-03-16 03:48:00,
2013-03-15 23:53:00,46.2,33.1,29.91,SW,225,3.1,3.1,60,0.00,,BKN110,0.00,VWS V14.01,2013-03-16 03:53:00,
2013-03-15 23:58:00,46.0,33.4,29.91,SW,225,0.0,0.0,61,0.00,,BKN110,0.00,VWS V14.01,2013-03-16 03:58:00,